Quartzsite, Arizona
Current Conditions -  °F | °C
As of 1:52 AM on Friday 31 Oct 2014 (Local Time) from KBLH Reporting Station
Clear Clear  
Wind Chill: 67°   Ceiling: Unl
Heat Index: 67°   Visibility: 10mi
Dew Point: 34°   Wind: 3mph
Humidity: 30%   Direction: 360°N
Pressure: 29.87"   Gusts: NA
Location:  33.67°N, 114.22°W
Report Text: KBLH 310852Z AUTO 36003KT 10SM CLR 19/01 A2987 RMK AO2 SLP109 T01940011 56009
Loading
Personal Weather Stations






























Interactive Weather Map New forecast layout! Learn more

10-Day Weather Forecast

Advertisements
Track Severe Weather on mobile